Time;durP1;ratioP1;P1;durP2;ratioP2;P2;SDS_P1;SDS_P2;PMS_P1;PMS_P2;Temp;Humidity;BMP_temperature;BMP_pressure;BME280_temperature;BME280_humidity;BME280_pressure;Samples;Min_cycle;Max_cycle;Signal;HPM_P1;HPM_P2
2021/05/01 00:00:16;;;;;;;12.35;6.72;;;;;;;;;;5071040;28;20028;-82
2021/05/01 00:02:42;;;;;;;12.02;6.88;;;;;;;;;;5053303;28;20098;-82
2021/05/01 00:05:08;;;;;;;12.02;6.43;;;;;;;;;;5074575;28;20017;-82
2021/05/01 00:07:34;;;;;;;10.95;6.05;;;;;;;;;;5051350;28;20111;-82
2021/05/01 00:10:00;;;;;;;9.80;5.85;;;;;;;;;;5053619;28;20024;-82
2021/05/01 00:12:26;;;;;;;9.75;5.70;;;;;;;;;;5053795;28;20531;-82
2021/05/01 00:14:52;;;;;;;8.60;5.60;;;;;;;;;;5050313;28;20117;-82
2021/05/01 00:17:18;;;;;;;10.63;5.85;;;;;;;;;;5055621;28;20416;-82
2021/05/01 00:19:44;;;;;;;12.63;6.07;;;;;;;;;;5054128;28;20024;-82
2021/05/01 00:22:10;;;;;;;12.20;6.25;;;;;;;;;;5051687;28;20040;-82
2021/05/01 00:24:36;;;;;;;11.07;6.28;;;;;;;;;;5044433;28;20028;-82
2021/05/01 00:27:02;;;;;;;10.55;6.20;;;;;;;;;;5056948;28;20029;-82
2021/05/01 00:29:28;;;;;;;11.38;5.90;;;;;;;;;;5066699;28;20602;-82
2021/05/01 00:31:54;;;;;;;15.18;6.53;;;;;;;;;;5050840;28;20033;-82
2021/05/01 00:34:20;;;;;;;10.50;6.30;;;;;;;;;;5051893;28;20511;-82
2021/05/01 00:36:46;;;;;;;11.77;7.45;;;;;;;;;;5056384;28;20028;-82
2021/05/01 00:39:12;;;;;;;8.65;5.90;;;;;;;;;;5072650;28;20123;-82
2021/05/01 00:41:38;;;;;;;10.52;5.90;;;;;;;;;;5068033;28;20454;-82
2021/05/01 00:44:07;;;;;;;11.95;6.20;;;;;;;;;;5073352;28;20059;-82
2021/05/01 00:46:34;;;;;;;9.05;5.18;;;;;;;;;;5044869;28;20542;-82
2021/05/01 00:49:00;;;;;;;10.98;5.47;;;;;;;;;;5055262;28;20028;-82
2021/05/01 00:51:26;;;;;;;12.75;5.80;;;;;;;;;;5071092;28;20083;-82
2021/05/01 00:53:52;;;;;;;14.10;6.93;;;;;;;;;;5047905;28;20033;-82
2021/05/01 00:56:18;;;;;;;12.65;6.20;;;;;;;;;;5057493;28;20135;-82
2021/05/01 00:58:44;;;;;;;12.23;6.70;;;;;;;;;;5053557;28;20407;-82
2021/05/01 01:03:37;;;;;;;11.43;6.43;;;;;;;;;;5074683;28;20047;-82
2021/05/01 01:06:04;;;;;;;11.95;6.93;;;;;;;;;;5066193;28;20442;-82
2021/05/01 01:08:30;;;;;;;12.13;6.28;;;;;;;;;;5073849;28;20140;-82
2021/05/01 01:10:56;;;;;;;8.73;6.35;;;;;;;;;;5056828;28;20028;-82
2021/05/01 01:13:23;;;;;;;11.60;6.30;;;;;;;;;;5052595;28;20032;-82
2021/05/01 01:15:49;;;;;;;12.23;7.53;;;;;;;;;;5049038;28;20043;-82
2021/05/01 01:18:15;;;;;;;10.60;6.68;;;;;;;;;;5051812;28;20059;-82
2021/05/01 01:20:41;;;;;;;10.15;6.78;;;;;;;;;;5073755;28;20015;-82
2021/05/01 01:23:07;;;;;;;11.32;6.60;;;;;;;;;;5054338;28;20032;-82
2021/05/01 01:25:33;;;;;;;10.77;6.43;;;;;;;;;;5073696;28;20024;-82
2021/05/01 01:27:59;;;;;;;7.38;5.65;;;;;;;;;;5055472;28;20437;-82
2021/05/01 01:30:29;;;;;;;12.90;7.13;;;;;;;;;;5055768;28;20089;-82
2021/05/01 01:32:56;;;;;;;10.48;7.25;;;;;;;;;;5049880;28;20476;-82
2021/05/01 01:35:22;;;;;;;13.23;7.15;;;;;;;;;;5067062;28;20067;-82
2021/05/01 01:37:49;;;;;;;10.43;6.75;;;;;;;;;;5061383;28;20035;-82
2021/05/01 01:40:16;;;;;;;13.00;6.88;;;;;;;;;;5073685;28;20127;-82
2021/05/01 01:42:42;;;;;;;12.05;6.97;;;;;;;;;;5055582;28;20033;-82
2021/05/01 01:45:09;;;;;;;10.55;6.90;;;;;;;;;;5047655;28;20020;-82
2021/05/01 01:47:35;;;;;;;14.23;8.32;;;;;;;;;;5063988;28;20025;-82
2021/05/01 01:50:01;;;;;;;11.75;7.25;;;;;;;;;;5073660;28;20024;-82
2021/05/01 01:52:27;;;;;;;13.20;7.63;;;;;;;;;;5051916;28;20036;-82
2021/05/01 01:54:53;;;;;;;11.77;6.95;;;;;;;;;;5073988;28;20483;-82
2021/05/01 01:57:19;;;;;;;12.77;7.28;;;;;;;;;;5051439;28;20101;-82
2021/05/01 01:59:45;;;;;;;10.13;6.22;;;;;;;;;;5072013;28;20365;-82
2021/05/01 02:02:11;;;;;;;9.45;6.50;;;;;;;;;;5069360;28;20029;-82
2021/05/01 02:04:37;;;;;;;9.25;5.57;;;;;;;;;;5046727;28;20031;-82
2021/05/01 02:07:03;;;;;;;9.95;6.25;;;;;;;;;;5072222;28;20027;-82
2021/05/01 02:09:29;;;;;;;10.10;6.63;;;;;;;;;;5072800;28;20045;-83
2021/05/01 02:11:55;;;;;;;10.70;6.75;;;;;;;;;;5073757;28;20397;-83
2021/05/01 02:14:21;;;;;;;13.75;7.15;;;;;;;;;;5055685;28;20036;-82
2021/05/01 02:16:47;;;;;;;10.77;6.55;;;;;;;;;;5055502;28;20587;-82
2021/05/01 02:19:13;;;;;;;9.05;5.93;;;;;;;;;;5071070;28;20032;-82
2021/05/01 02:21:40;;;;;;;12.35;6.47;;;;;;;;;;5045609;28;20052;-82
2021/05/01 02:24:06;;;;;;;9.18;6.35;;;;;;;;;;5056651;28;20473;-82
2021/05/01 02:26:32;;;;;;;11.90;6.57;;;;;;;;;;5062962;28;20476;-82
2021/05/01 02:28:58;;;;;;;11.38;6.95;;;;;;;;;;5060488;28;20020;-82
2021/05/01 02:31:24;;;;;;;15.55;7.57;;;;;;;;;;5075848;28;20538;-82
2021/05/01 02:33:50;;;;;;;16.83;7.53;;;;;;;;;;5049754;28;20016;-82
2021/05/01 02:36:16;;;;;;;11.93;7.78;;;;;;;;;;5061645;28;20047;-82
2021/05/01 02:38:42;;;;;;;10.25;7.60;;;;;;;;;;5058285;28;20464;-82
2021/05/01 02:41:08;;;;;;;13.70;8.00;;;;;;;;;;5067827;28;20016;-82
2021/05/01 02:43:34;;;;;;;12.13;8.23;;;;;;;;;;5056207;28;20399;-82
2021/05/01 02:46:03;;;;;;;11.30;7.45;;;;;;;;;;5058479;28;20036;-82
2021/05/01 02:48:30;;;;;;;12.15;8.65;;;;;;;;;;5060277;28;20065;-82
2021/05/01 02:50:56;;;;;;;11.95;8.40;;;;;;;;;;5071767;28;20025;-82
2021/05/01 02:53:22;;;;;;;14.60;7.28;;;;;;;;;;5057260;28;20051;-82
2021/05/01 02:55:49;;;;;;;16.45;9.00;;;;;;;;;;5056648;28;20073;-82
2021/05/01 02:58:15;;;;;;;14.23;8.05;;;;;;;;;;5063204;28;20479;-82
2021/05/01 03:00:41;;;;;;;13.63;8.13;;;;;;;;;;5054231;28;20044;-82
2021/05/01 03:03:07;;;;;;;16.55;8.05;;;;;;;;;;5061688;28;20035;-82
2021/05/01 03:05:33;;;;;;;17.13;10.70;;;;;;;;;;5062366;28;20388;-82
2021/05/01 03:07:59;;;;;;;16.98;10.23;;;;;;;;;;5058924;28;20037;-82
2021/05/01 03:10:26;;;;;;;17.83;9.95;;;;;;;;;;5043651;28;20025;-82
2021/05/01 03:12:52;;;;;;;13.00;8.70;;;;;;;;;;5056505;28;20059;-82
2021/05/01 03:15:19;;;;;;;15.25;7.90;;;;;;;;;;5059347;28;20119;-82
2021/05/01 03:17:45;;;;;;;11.50;7.45;;;;;;;;;;5072220;28;20032;-82
2021/05/01 03:20:12;;;;;;;13.70;7.53;;;;;;;;;;5061096;28;20040;-82
2021/05/01 03:22:38;;;;;;;10.60;7.85;;;;;;;;;;5053879;28;20039;-82
2021/05/01 03:25:06;;;;;;;11.23;8.15;;;;;;;;;;5078802;28;20085;-82
2021/05/01 03:27:32;;;;;;;14.55;8.73;;;;;;;;;;5075331;28;20404;-82
2021/05/01 03:29:58;;;;;;;16.02;9.13;;;;;;;;;;5054951;28;20032;-82
2021/05/01 03:32:24;;;;;;;16.02;9.43;;;;;;;;;;5045717;28;20035;-82
2021/05/01 03:34:50;;;;;;;14.23;8.32;;;;;;;;;;5059192;28;20082;-82
2021/05/01 03:37:16;;;;;;;14.90;9.23;;;;;;;;;;5056848;28;20032;-82
2021/05/01 03:39:42;;;;;;;13.65;7.72;;;;;;;;;;5056867;28;20067;-82
2021/05/01 03:42:08;;;;;;;17.52;9.23;;;;;;;;;;5058455;28;20025;-82
2021/05/01 03:44:34;;;;;;;10.65;7.80;;;;;;;;;;5057824;28;20025;-83
2021/05/01 03:47:00;;;;;;;14.65;8.68;;;;;;;;;;5074668;28;20100;-83
2021/05/01 03:49:26;;;;;;;14.38;8.02;;;;;;;;;;5061228;28;20537;-83
2021/05/01 03:51:52;;;;;;;13.70;8.27;;;;;;;;;;5044363;28;20093;-83
2021/05/01 03:54:18;;;;;;;12.55;6.80;;;;;;;;;;5049853;28;20079;-82
2021/05/01 03:56:44;;;;;;;9.65;7.30;;;;;;;;;;5052005;28;20426;-83
2021/05/01 03:59:10;;;;;;;15.18;8.20;;;;;;;;;;5048683;28;20563;-83
2021/05/01 04:01:37;;;;;;;13.30;7.65;;;;;;;;;;5068554;28;20115;-83
2021/05/01 04:04:03;;;;;;;14.45;8.60;;;;;;;;;;5057449;28;20027;-82
2021/05/01 04:06:29;;;;;;;10.13;7.47;;;;;;;;;;5087757;28;20027;-83
2021/05/01 04:08:56;;;;;;;14.95;8.52;;;;;;;;;;5053427;28;20396;-83
2021/05/01 04:11:22;;;;;;;22.73;9.70;;;;;;;;;;5043461;28;20024;-83
2021/05/01 04:13:48;;;;;;;15.57;9.25;;;;;;;;;;5049449;28;20484;-82
2021/05/01 04:16:23;;;;;;;12.82;9.30;;;;;;;;;;5051575;28;20071;-82
2021/05/01 04:18:49;;;;;;;13.75;9.88;;;;;;;;;;5050193;28;20120;-82
2021/05/01 04:21:15;;;;;;;17.65;9.93;;;;;;;;;;5058148;28;20488;-82
2021/05/01 04:23:41;;;;;;;16.30;8.60;;;;;;;;;;5073235;28;20025;-82
2021/05/01 04:26:07;;;;;;;14.90;9.20;;;;;;;;;;5054231;28;20020;-82
2021/05/01 04:28:33;;;;;;;15.13;9.10;;;;;;;;;;5058081;28;20456;-82
2021/05/01 04:31:00;;;;;;;13.02;8.32;;;;;;;;;;5049287;28;20020;-82
2021/05/01 04:33:26;;;;;;;19.30;10.35;;;;;;;;;;5063706;28;20112;-82
2021/05/01 04:35:53;;;;;;;18.75;10.70;;;;;;;;;;5056922;28;20031;-83
2021/05/01 04:38:19;;;;;;;15.70;9.20;;;;;;;;;;5054954;28;20146;-83
2021/05/01 04:40:46;;;;;;;16.85;10.80;;;;;;;;;;5045357;28;20123;-82
2021/05/01 04:43:12;;;;;;;23.63;12.23;;;;;;;;;;5057340;28;20027;-83
2021/05/01 04:45:39;;;;;;;20.80;11.50;;;;;;;;;;5048266;28;20032;-83
2021/05/01 04:48:06;;;;;;;17.77;11.18;;;;;;;;;;5044271;28;20064;-83
2021/05/01 04:50:32;;;;;;;23.15;11.50;;;;;;;;;;5056727;28;20039;-82
2021/05/01 04:52:58;;;;;;;17.83;11.02;;;;;;;;;;5069957;28;20024;-82
2021/05/01 04:55:25;;;;;;;20.52;11.07;;;;;;;;;;5056662;28;20117;-82
2021/05/01 04:57:52;;;;;;;19.92;10.48;;;;;;;;;;5050606;28;20021;-82
2021/05/01 05:00:18;;;;;;;13.43;9.35;;;;;;;;;;5056604;28;20059;-82
2021/05/01 05:02:45;;;;;;;16.92;8.85;;;;;;;;;;5059842;28;20025;-82
2021/05/01 05:05:12;;;;;;;14.80;8.73;;;;;;;;;;5042736;28;20433;-82
2021/05/01 05:07:38;;;;;;;12.73;9.02;;;;;;;;;;5065683;28;20142;-83
2021/05/01 05:10:05;;;;;;;13.43;8.80;;;;;;;;;;5049473;28;20028;-82
2021/05/01 05:12:31;;;;;;;14.48;9.70;;;;;;;;;;5056817;28;20395;-82
2021/05/01 05:14:57;;;;;;;17.77;9.98;;;;;;;;;;5057277;28;20122;-82
2021/05/01 05:17:23;;;;;;;15.50;10.05;;;;;;;;;;5056958;28;20427;-83
2021/05/01 05:19:49;;;;;;;17.00;9.95;;;;;;;;;;5053262;28;20032;-82
2021/05/01 05:22:15;;;;;;;14.88;9.40;;;;;;;;;;5056889;28;20499;-82
2021/05/01 05:24:41;;;;;;;12.93;8.63;;;;;;;;;;5053234;28;20094;-82
2021/05/01 05:27:08;;;;;;;15.55;9.07;;;;;;;;;;5050603;28;20024;-83
2021/05/01 05:29:34;;;;;;;20.98;10.35;;;;;;;;;;5071410;28;20294;-82
2021/05/01 05:32:03;;;;;;;17.67;8.82;;;;;;;;;;5071321;28;20029;-82
2021/05/01 05:34:29;;;;;;;14.60;9.30;;;;;;;;;;5058918;28;20024;-82
2021/05/01 05:36:55;;;;;;;15.13;9.05;;;;;;;;;;5046676;28;20419;-82
2021/05/01 05:39:21;;;;;;;18.60;9.63;;;;;;;;;;5049798;28;20036;-82
2021/05/01 05:41:47;;;;;;;15.88;10.48;;;;;;;;;;5052494;28;20036;-82
2021/05/01 05:44:13;;;;;;;18.10;11.10;;;;;;;;;;5069306;28;20052;-82
2021/05/01 05:46:39;;;;;;;16.83;10.95;;;;;;;;;;5052109;28;20029;-82
2021/05/01 05:49:05;;;;;;;20.95;12.40;;;;;;;;;;5073049;28;20025;-82
2021/05/01 05:51:32;;;;;;;19.50;11.38;;;;;;;;;;5054510;28;20127;-82
2021/05/01 05:53:58;;;;;;;17.27;10.77;;;;;;;;;;5061398;28;20084;-82
2021/05/01 05:56:24;;;;;;;18.30;11.40;;;;;;;;;;5048506;28;20127;-82
2021/05/01 05:58:50;;;;;;;20.23;12.25;;;;;;;;;;5055990;28;20032;-82
2021/05/01 06:01:16;;;;;;;16.92;11.68;;;;;;;;;;5071910;28;20472;-82
2021/05/01 06:03:45;;;;;;;17.35;11.00;;;;;;;;;;5069537;28;20036;-82
2021/05/01 06:06:12;;;;;;;18.63;10.95;;;;;;;;;;5050506;28;20036;-82
2021/05/01 06:08:39;;;;;;;19.27;11.45;;;;;;;;;;5048563;28;20045;-82
2021/05/01 06:11:06;;;;;;;22.17;12.43;;;;;;;;;;5054610;28;20052;-82
2021/05/01 06:13:34;;;;;;;17.75;10.82;;;;;;;;;;5053246;28;20052;-82
2021/05/01 06:16:00;;;;;;;23.85;13.38;;;;;;;;;;5072881;28;20021;-83
2021/05/01 06:18:27;;;;;;;22.08;13.45;;;;;;;;;;5042247;28;20741;-83
2021/05/01 06:20:54;;;;;;;25.10;13.13;;;;;;;;;;5055006;28;20182;-82
2021/05/01 06:23:21;;;;;;;21.77;12.52;;;;;;;;;;5053061;28;20111;-83
2021/05/01 06:25:47;;;;;;;24.58;12.85;;;;;;;;;;5048045;28;20063;-83
2021/05/01 06:28:14;;;;;;;22.45;13.02;;;;;;;;;;5055061;28;20584;-84
2021/05/01 06:30:41;;;;;;;24.13;14.27;;;;;;;;;;5045201;28;20123;-83
2021/05/01 06:33:09;;;;;;;19.92;13.00;;;;;;;;;;5053555;28;20125;-82
2021/05/01 06:35:37;;;;;;;22.52;14.13;;;;;;;;;;5056489;28;20013;-83
2021/05/01 06:38:03;;;;;;;19.52;12.85;;;;;;;;;;5048694;28;20036;-82
2021/05/01 06:40:37;;;;;;;23.75;13.93;;;;;;;;;;5045732;28;20040;-82
2021/05/01 06:43:04;;;;;;;;;;;;;;;;;;5054725;28;20020;-83
2021/05/01 06:45:34;;;;;;;18.73;11.80;;;;;;;;;;5044314;28;19912;-83
2021/05/01 06:48:01;;;;;;;24.10;12.70;;;;;;;;;;5072527;28;20020;-83
2021/05/01 06:50:28;;;;;;;25.02;12.77;;;;;;;;;;5052809;28;20028;-83
2021/05/01 06:52:56;;;;;;;27.38;14.75;;;;;;;;;;5054716;28;20571;-83
2021/05/01 06:55:24;;;;;;;23.20;14.13;;;;;;;;;;5056809;28;20495;-82
2021/05/01 06:57:51;;;;;;;23.08;13.68;;;;;;;;;;5074272;28;20055;-82
2021/05/01 07:00:18;;;;;;;22.63;14.20;;;;;;;;;;5073512;28;20036;-82
2021/05/01 07:02:45;;;;;;;24.95;14.27;;;;;;;;;;5072158;28;20520;-82
2021/05/01 07:05:13;;;;;;;23.23;13.80;;;;;;;;;;5073449;28;20050;-83
2021/05/01 07:07:39;;;;;;;25.02;15.05;;;;;;;;;;5048053;28;20360;-84
2021/05/01 07:10:06;;;;;;;25.85;13.90;;;;;;;;;;5055025;28;20038;-82
2021/05/01 07:12:32;;;;;;;26.15;14.20;;;;;;;;;;5050900;28;20484;-82
2021/05/01 07:15:12;;;;;;;30.58;15.88;;;;;;;;;;5058724;28;20060;-82
2021/05/01 07:17:39;;;;;;;24.25;14.25;;;;;;;;;;5077207;28;20681;-82
2021/05/01 07:20:06;;;;;;;27.20;13.80;;;;;;;;;;5052155;28;20115;-82
2021/05/01 07:22:32;;;;;;;25.13;14.82;;;;;;;;;;5044371;28;20037;-83
2021/05/01 07:24:59;;;;;;;26.60;15.27;;;;;;;;;;5056868;28;20058;-82
2021/05/01 07:27:37;;;;;;;22.05;14.27;;;;;;;;;;5058933;28;20017;-82
2021/05/01 07:30:05;;;;;;;23.52;14.65;;;;;;;;;;5058758;28;20031;-84
2021/05/01 07:32:33;;;;;;;24.33;14.18;;;;;;;;;;5057540;28;20032;-83
2021/05/01 07:35:01;;;;;;;28.15;14.48;;;;;;;;;;5058702;28;20032;-84
2021/05/01 07:37:28;;;;;;;29.77;16.00;;;;;;;;;;5047972;28;20028;-84
2021/05/01 07:39:54;;;;;;;26.38;13.20;;;;;;;;;;5057635;28;20033;-84
2021/05/01 07:42:21;;;;;;;26.70;14.35;;;;;;;;;;5057294;28;20393;-84
2021/05/01 07:44:47;;;;;;;23.85;14.27;;;;;;;;;;5053266;28;20563;-84
2021/05/01 07:47:15;;;;;;;26.52;15.35;;;;;;;;;;5058754;28;20024;-83
2021/05/01 07:49:41;;;;;;;27.20;15.30;;;;;;;;;;5050869;28;20043;-84
2021/05/01 07:52:07;;;;;;;27.73;15.25;;;;;;;;;;5052318;28;20116;-84
2021/05/01 07:54:39;;;;;;;24.58;14.60;;;;;;;;;;5068880;28;20058;-84
2021/05/01 07:57:05;;;;;;;30.23;15.52;;;;;;;;;;5059499;28;20025;-84
2021/05/01 07:59:31;;;;;;;26.55;15.55;;;;;;;;;;5060267;28;20035;-84
2021/05/01 08:01:57;;;;;;;30.13;15.88;;;;;;;;;;5054037;28;20427;-83
2021/05/01 08:04:23;;;;;;;25.15;14.35;;;;;;;;;;5061551;28;20032;-83
2021/05/01 08:06:49;;;;;;;26.75;16.23;;;;;;;;;;5043849;28;20358;-83
2021/05/01 08:09:15;;;;;;;26.27;16.48;;;;;;;;;;5058246;28;20045;-84
2021/05/01 08:11:41;;;;;;;25.25;15.00;;;;;;;;;;5047303;28;20072;-83
2021/05/01 08:14:07;;;;;;;24.92;15.95;;;;;;;;;;5069013;28;20040;-84
2021/05/01 08:16:34;;;;;;;26.00;15.57;;;;;;;;;;5070997;28;20025;-84
2021/05/01 08:19:02;;;;;;;24.15;14.73;;;;;;;;;;5056911;28;20051;-84
2021/05/01 08:21:29;;;;;;;26.15;15.57;;;;;;;;;;5058933;28;20070;-84
2021/05/01 08:23:55;;;;;;;23.65;15.25;;;;;;;;;;5057346;28;20557;-88
2021/05/01 08:26:21;;;;;;;26.20;15.32;;;;;;;;;;5027284;28;20024;-84
2021/05/01 08:28:47;;;;;;;20.60;13.35;;;;;;;;;;5049197;28;20125;-84
2021/05/01 08:31:13;;;;;;;28.10;14.48;;;;;;;;;;5059335;28;20112;-84
2021/05/01 08:33:41;;;;;;;25.30;14.30;;;;;;;;;;5065144;28;20035;-85
2021/05/01 08:36:07;;;;;;;23.13;14.70;;;;;;;;;;5050474;28;20111;-85
2021/05/01 08:38:36;;;;;;;21.98;13.90;;;;;;;;;;5053432;28;20119;-85
2021/05/01 08:41:03;;;;;;;26.52;12.75;;;;;;;;;;5057345;28;20023;-84
2021/05/01 08:43:29;;;;;;;22.58;12.48;;;;;;;;;;5054577;28;20476;-84
2021/05/01 08:45:57;;;;;;;19.27;11.98;;;;;;;;;;5046295;28;20021;-84
2021/05/01 08:48:24;;;;;;;19.77;11.93;;;;;;;;;;5078432;28;20027;-84
2021/05/01 08:51:03;;;;;;;18.65;12.05;;;;;;;;;;5054590;28;20016;-84
2021/05/01 08:53:29;;;;;;;15.40;9.88;;;;;;;;;;5060128;28;20064;-85
2021/05/01 08:55:56;;;;;;;18.08;11.30;;;;;;;;;;5048203;28;20025;-85
2021/05/01 08:58:22;;;;;;;15.38;9.43;;;;;;;;;;5038173;28;20438;-87
2021/05/01 09:00:49;;;;;;;16.70;11.05;;;;;;;;;;5051918;28;20024;-87
2021/05/01 09:03:19;;;;;;;23.10;12.20;;;;;;;;;;5057010;28;20028;-85
2021/05/01 09:05:45;;;;;;;21.33;12.40;;;;;;;;;;5073190;28;20027;-85
2021/05/01 09:08:13;;;;;;;17.73;11.35;;;;;;;;;;5071694;28;20044;-85
2021/05/01 09:10:41;;;;;;;17.52;11.48;;;;;;;;;;5076459;28;20388;-85
2021/05/01 09:13:14;;;;;;;17.92;10.88;;;;;;;;;;5072716;28;20036;-86
2021/05/01 09:15:42;;;;;;;14.20;9.07;;;;;;;;;;5063508;28;20490;-85
2021/05/01 09:18:08;;;;;;;12.57;9.50;;;;;;;;;;5044178;28;20028;-85
2021/05/01 09:20:34;;;;;;;12.98;8.63;;;;;;;;;;5064446;28;20061;-85
2021/05/01 09:23:01;;;;;;;13.68;9.18;;;;;;;;;;5050605;28;20044;-85
2021/05/01 09:25:29;;;;;;;14.88;8.13;;;;;;;;;;5049003;28;20029;-85
2021/05/01 09:27:58;;;;;;;11.07;8.20;;;;;;;;;;5077157;28;20379;-85
2021/05/01 09:30:26;;;;;;;12.73;7.72;;;;;;;;;;5047946;28;20057;-86
2021/05/01 09:32:52;;;;;;;11.65;7.75;;;;;;;;;;5052787;28;20033;-86
2021/05/01 09:35:18;;;;;;;12.10;7.78;;;;;;;;;;5069052;28;20027;-85
2021/05/01 09:37:44;;;;;;;8.70;6.22;;;;;;;;;;5058749;28;20028;-85
2021/05/01 09:40:11;;;;;;;9.85;6.70;;;;;;;;;;5053576;28;20067;-85
2021/05/01 09:42:37;;;;;;;10.27;6.88;;;;;;;;;;5077490;28;20443;-86
2021/05/01 09:45:08;;;;;;;12.18;7.85;;;;;;;;;;5056039;28;20026;-85
2021/05/01 09:47:34;;;;;;;11.27;7.05;;;;;;;;;;5054257;28;20035;-84
2021/05/01 09:50:16;;;;;;;9.75;6.40;;;;;;;;;;5048580;28;20052;-84
2021/05/01 09:52:56;;;;;;;10.73;8.00;;;;;;;;;;5061976;28;20032;-84
2021/05/01 09:55:40;;;;;;;12.18;7.80;;;;;;;;;;5049313;28;20064;-84
2021/05/01 09:58:11;;;;;;;15.82;8.38;;;;;;;;;;5056985;28;20170;-84
2021/05/01 10:00:37;;;;;;;16.90;8.75;;;;;;;;;;5074469;28;20185;-85
2021/05/01 10:03:03;;;;;;;11.32;7.95;;;;;;;;;;5058663;28;20025;-85
2021/05/01 10:05:29;;;;;;;12.68;8.43;;;;;;;;;;5055800;28;20341;-84
2021/05/01 10:07:56;;;;;;;14.48;7.90;;;;;;;;;;5073223;28;20100;-85
2021/05/01 10:10:22;;;;;;;12.57;8.23;;;;;;;;;;5053432;28;20021;-85
2021/05/01 10:12:48;;;;;;;12.65;7.95;;;;;;;;;;5067741;28;20086;-84
2021/05/01 10:15:15;;;;;;;13.20;7.07;;;;;;;;;;5053515;28;20037;-84
2021/05/01 10:17:43;;;;;;;11.20;7.63;;;;;;;;;;5057242;28;20032;-84
2021/05/01 10:20:09;;;;;;;14.20;8.30;;;;;;;;;;5055773;28;20032;-84
2021/05/01 10:22:56;;;;;;;12.63;7.60;;;;;;;;;;5054580;28;20064;-84
2021/05/01 10:25:25;;;;;;;10.70;7.43;;;;;;;;;;5054023;28;20059;-84
2021/05/01 10:27:57;;;;;;;9.80;7.20;;;;;;;;;;5054583;28;20051;-84
2021/05/01 10:30:46;;;;;;;11.63;7.55;;;;;;;;;;5054035;28;20511;-84
2021/05/01 10:33:24;;;;;;;12.30;7.30;;;;;;;;;;5060562;28;20059;-84
2021/05/01 10:35:52;;;;;;;9.45;6.28;;;;;;;;;;5049131;28;20040;-84
2021/05/01 10:38:21;;;;;;;10.88;7.03;;;;;;;;;;5070792;28;20036;-85
2021/05/01 10:40:49;;;;;;;10.45;7.00;;;;;;;;;;5071152;28;20058;-84
2021/05/01 10:43:17;;;;;;;11.65;7.30;;;;;;;;;;5060481;28;20029;-85
2021/05/01 10:45:47;;;;;;;11.38;7.10;;;;;;;;;;5063372;28;20016;-85
2021/05/01 10:48:13;;;;;;;10.85;7.70;;;;;;;;;;5062179;28;20021;-85
2021/05/01 10:50:41;;;;;;;10.50;6.13;;;;;;;;;;5061178;28;20031;-85
2021/05/01 10:53:07;;;;;;;9.10;6.43;;;;;;;;;;5076241;28;20024;-85
2021/05/01 10:55:54;;;;;;;10.52;6.25;;;;;;;;;;5046162;28;20108;-85
2021/05/01 10:58:35;;;;;;;10.82;6.88;;;;;;;;;;5067549;28;20035;-85
2021/05/01 11:01:01;;;;;;;10.13;6.38;;;;;;;;;;5060504;28;20033;-85
2021/05/01 11:03:28;;;;;;;9.50;6.68;;;;;;;;;;5062066;28;20679;-85
2021/05/01 11:05:57;;;;;;;10.48;6.30;;;;;;;;;;5058652;28;20380;-85
2021/05/01 11:08:29;;;;;;;9.70;6.47;;;;;;;;;;5057730;28;20037;-85
2021/05/01 11:10:57;;;;;;;8.10;5.78;;;;;;;;;;5071595;28;20056;-85
2021/05/01 11:13:25;;;;;;;11.23;6.43;;;;;;;;;;5056406;28;20021;-85
2021/05/01 11:15:55;;;;;;;11.00;7.00;;;;;;;;;;5060498;28;20087;-85
2021/05/01 11:18:21;;;;;;;15.82;8.07;;;;;;;;;;5081175;28;20431;-85
2021/05/01 11:20:50;;;;;;;10.23;7.28;;;;;;;;;;5063528;28;20040;-84
2021/05/01 11:23:16;;;;;;;10.52;7.28;;;;;;;;;;5062596;28;20032;-84
2021/05/01 11:25:42;;;;;;;8.27;6.28;;;;;;;;;;5059895;28;20017;-84
2021/05/01 11:28:12;;;;;;;11.27;7.25;;;;;;;;;;5057652;28;20025;-84
2021/05/01 11:30:39;;;;;;;11.32;7.10;;;;;;;;;;5057670;28;20111;-84
2021/05/01 11:33:08;;;;;;;11.60;6.72;;;;;;;;;;5057827;28;20385;-85
2021/05/01 11:35:35;;;;;;;12.07;7.68;;;;;;;;;;5061129;28;20105;-85
2021/05/01 11:38:02;;;;;;;12.75;7.43;;;;;;;;;;5051825;28;20036;-84
2021/05/01 11:40:33;;;;;;;10.80;7.15;;;;;;;;;;5078715;28;20052;-84
2021/05/01 11:42:59;;;;;;;11.27;7.15;;;;;;;;;;5070358;28;20032;-84
2021/05/01 11:45:48;;;;;;;10.48;7.03;;;;;;;;;;5061053;28;20020;-84
2021/05/01 11:48:34;;;;;;;10.23;7.07;;;;;;;;;;5034258;28;20575;-84
2021/05/01 11:51:02;;;;;;;10.80;6.07;;;;;;;;;;5051013;28;20028;-85
2021/05/01 11:53:36;;;;;;;10.52;7.03;;;;;;;;;;5061749;28;20036;-85
2021/05/01 11:56:25;;;;;;;9.48;6.38;;;;;;;;;;5054209;28;20023;-84
2021/05/01 11:58:51;;;;;;;13.00;7.03;;;;;;;;;;5060226;28;20115;-85
2021/05/01 12:01:19;;;;;;;9.20;6.05;;;;;;;;;;5069499;28;20096;-84
2021/05/01 12:03:53;;;;;;;11.40;6.90;;;;;;;;;;5071038;28;20030;-84
2021/05/01 12:06:29;;;;;;;10.07;7.38;;;;;;;;;;5053575;28;20472;-84
2021/05/01 12:09:01;;;;;;;8.43;5.70;;;;;;;;;;5049779;28;20048;-84
2021/05/01 12:11:29;;;;;;;10.70;7.45;;;;;;;;;;5048116;28;20032;-84
2021/05/01 12:13:59;;;;;;;9.30;6.70;;;;;;;;;;5052028;28;20024;-84
2021/05/01 12:16:25;;;;;;;10.10;6.93;;;;;;;;;;5077217;28;20029;-84
2021/05/01 12:18:52;;;;;;;9.10;6.63;;;;;;;;;;5078025;28;20009;-83
2021/05/01 12:21:19;;;;;;;9.50;6.47;;;;;;;;;;5060919;28;20096;-84
2021/05/01 12:23:49;;;;;;;9.55;6.65;;;;;;;;;;5062180;28;20515;-84
2021/05/01 12:26:35;;;;;;;10.63;6.80;;;;;;;;;;5044311;28;20021;-84
2021/05/01 12:29:20;;;;;;;12.30;6.38;;;;;;;;;;5061037;28;20017;-84
2021/05/01 12:31:47;;;;;;;7.68;5.68;;;;;;;;;;5055082;28;20032;-84
2021/05/01 12:34:13;;;;;;;8.82;5.93;;;;;;;;;;5057506;28;20028;-84
2021/05/01 12:36:43;;;;;;;7.38;5.65;;;;;;;;;;5079430;28;20049;-84
2021/05/01 12:39:09;;;;;;;10.77;6.38;;;;;;;;;;5043339;28;20033;-84
2021/05/01 12:41:38;;;;;;;9.15;5.82;;;;;;;;;;5077676;28;20050;-87
2021/05/01 12:44:04;;;;;;;7.65;5.35;;;;;;;;;;5048669;28;20028;-84
2021/05/01 12:46:43;;;;;;;9.45;5.65;;;;;;;;;;5056147;28;20461;-84
2021/05/01 12:49:17;;;;;;;7.57;5.32;;;;;;;;;;5079439;28;20377;-84
2021/05/01 12:51:54;;;;;;;7.38;5.15;;;;;;;;;;5050947;28;20025;-84
2021/05/01 12:54:20;;;;;;;9.48;5.70;;;;;;;;;;5052163;28;20032;-84
2021/05/01 12:56:57;;;;;;;7.47;5.18;;;;;;;;;;5076078;28;20066;-84
2021/05/01 12:59:28;;;;;;;10.15;4.97;;;;;;;;;;5054588;28;20028;-84
2021/05/01 13:01:54;;;;;;;8.88;5.68;;;;;;;;;;5075557;28;20058;-84
2021/05/01 13:04:35;;;;;;;8.85;5.65;;;;;;;;;;5059593;28;20369;-84
2021/05/01 13:07:02;;;;;;;8.30;5.63;;;;;;;;;;5058951;28;20590;-84
2021/05/01 13:09:34;;;;;;;6.97;5.47;;;;;;;;;;5069332;28;20495;-84
2021/05/01 13:12:04;;;;;;;6.55;4.75;;;;;;;;;;5050758;28;20496;-84
2021/05/01 13:14:30;;;;;;;6.57;5.20;;;;;;;;;;5045581;28;20054;-84
2021/05/01 13:17:00;;;;;;;7.00;5.40;;;;;;;;;;5056544;28;20476;-84
2021/05/01 13:19:55;;;;;;;7.32;5.00;;;;;;;;;;5062764;28;20552;-84
2021/05/01 13:22:22;;;;;;;9.20;5.82;;;;;;;;;;5045512;28;20029;-84
2021/05/01 13:25:01;;;;;;;6.20;4.65;;;;;;;;;;5062843;28;20481;-84
2021/05/01 13:27:35;;;;;;;7.85;5.40;;;;;;;;;;5058486;28;20119;-84
2021/05/01 13:30:03;;;;;;;7.15;5.05;;;;;;;;;;5060082;28;20615;-84
2021/05/01 13:32:28;;;;;;;7.32;4.97;;;;;;;;;;5060674;28;20076;-84
2021/05/01 13:34:58;;;;;;;6.78;4.90;;;;;;;;;;5076089;28;20033;-84
2021/05/01 13:37:25;;;;;;;7.88;5.13;;;;;;;;;;5059445;28;20063;-84
2021/05/01 13:39:51;;;;;;;10.65;6.07;;;;;;;;;;5059240;28;20060;-84
2021/05/01 13:42:18;;;;;;;7.05;5.47;;;;;;;;;;5052522;28;20244;-84
2021/05/01 13:44:46;;;;;;;11.43;5.80;;;;;;;;;;5049633;28;20033;-84
2021/05/01 13:47:25;;;;;;;10.90;5.78;;;;;;;;;;5077592;28;20025;-84
2021/05/01 13:49:53;;;;;;;10.80;6.57;;;;;;;;;;5078051;28;20051;-84
2021/05/01 13:52:25;;;;;;;8.95;5.88;;;;;;;;;;5044636;28;20025;-84
2021/05/01 13:54:52;;;;;;;7.90;5.68;;;;;;;;;;5064550;28;20033;-84
2021/05/01 13:57:18;;;;;;;9.93;5.18;;;;;;;;;;5052763;28;20447;-84
2021/05/01 13:59:43;;;;;;;8.15;5.22;;;;;;;;;;5042413;28;20734;-84
2021/05/01 14:02:10;;;;;;;7.70;4.50;;;;;;;;;;5060204;28;20021;-84
2021/05/01 14:04:37;;;;;;;8.05;4.78;;;;;;;;;;5075629;28;20048;-84
2021/05/01 14:07:06;;;;;;;9.00;5.85;;;;;;;;;;5044395;28;20137;-84
2021/05/01 14:09:33;;;;;;;7.10;4.70;;;;;;;;;;5078141;28;20036;-84
2021/05/01 14:12:00;;;;;;;7.60;5.03;;;;;;;;;;5046324;28;20121;-84
2021/05/01 14:14:26;;;;;;;8.40;6.15;;;;;;;;;;5048997;28;20053;-84
2021/05/01 14:17:01;;;;;;;8.32;5.93;;;;;;;;;;5045886;28;20036;-84
2021/05/01 14:19:27;;;;;;;9.25;6.55;;;;;;;;;;5043332;28;20029;-84
2021/05/01 14:21:54;;;;;;;8.95;6.20;;;;;;;;;;5074086;28;20025;-84
2021/05/01 14:24:20;;;;;;;9.07;6.25;;;;;;;;;;5058561;28;20464;-84
2021/05/01 14:26:54;;;;;;;7.35;5.97;;;;;;;;;;5059148;28;20472;-84
2021/05/01 14:29:20;;;;;;;7.75;4.82;;;;;;;;;;5057986;28;20016;-83
2021/05/01 14:32:06;;;;;;;6.30;4.68;;;;;;;;;;5071458;28;20032;-83
2021/05/01 14:34:32;;;;;;;7.20;4.32;;;;;;;;;;5050442;28;20074;-83